Time;durP1;ratioP1;P1;durP2;ratioP2;P2;SDS_P1;SDS_P2;PMS_P1;PMS_P2;Temp;Humidity;BMP_temperature;BMP_pressure;BME280_temperature;BME280_humidity;BME280_pressure;Samples;Min_cycle;Max_cycle;Signal;HPM_P1;HPM_P2
2022/12/05 00:00:40;;;;;;;35.28;27.58;;;4.80;99.90;;;;;;2078227;28;20378;-73
2022/12/05 00:01:42;;;;;;;36.33;26.77;;;4.80;99.90;;;;;;2077820;28;20030;-72
2022/12/05 00:02:43;;;;;;;34.08;26.95;;;4.70;99.90;;;;;;2077925;28;20033;-73
2022/12/05 00:03:45;;;;;;;36.70;27.60;;;4.80;99.90;;;;;;2083669;28;20121;-73
2022/12/05 00:04:46;;;;;;;33.95;25.88;;;4.80;99.90;;;;;;2083837;28;20029;-73
2022/12/05 00:05:46;;;;;;;38.63;26.45;;;4.80;99.90;;;;;;2077575;28;20034;-73
2022/12/05 00:06:47;;;;;;;36.97;27.88;;;4.80;99.90;;;;;;2078675;28;20105;-73
2022/12/05 00:07:47;;;;;;;33.95;25.58;;;4.80;99.90;;;;;;2077361;28;20075;-73
2022/12/05 00:08:48;;;;;;;34.45;25.95;;;4.80;99.90;;;;;;2077313;28;20397;-73
2022/12/05 00:09:49;;;;;;;33.20;25.73;;;4.80;99.90;;;;;;2078187;28;20022;-73
2022/12/05 00:10:50;;;;;;;31.13;24.40;;;4.80;99.90;;;;;;2076653;28;20024;-72
2022/12/05 00:11:50;;;;;;;33.95;25.35;;;4.80;99.90;;;;;;2078910;28;20112;-73
2022/12/05 00:12:51;;;;;;;35.35;25.92;;;4.80;99.90;;;;;;2075806;28;20485;-73
2022/12/05 00:13:53;;;;;;;35.75;26.15;;;4.80;99.90;;;;;;2076809;28;20116;-73
2022/12/05 00:14:54;;;;;;;34.83;25.95;;;4.80;99.90;;;;;;2077185;28;20025;-73
2022/12/05 00:15:54;;;;;;;34.97;25.70;;;4.80;99.90;;;;;;2075394;28;20026;-73
2022/12/05 00:16:55;;;;;;;36.35;27.05;;;4.80;99.90;;;;;;2077807;28;20053;-73
2022/12/05 00:17:55;;;;;;;34.55;25.83;;;4.80;99.90;;;;;;2076379;28;21726;-73
2022/12/05 00:18:59;;;;;;;37.45;27.80;;;4.80;99.90;;;;;;2075687;28;20029;-73
2022/12/05 00:19:59;;;;;;;35.78;27.63;;;4.80;99.90;;;;;;2077039;28;20021;-73
2022/12/05 00:21:00;;;;;;;38.03;27.17;;;4.70;99.90;;;;;;2076137;28;20025;-73
2022/12/05 00:22:01;;;;;;;35.10;27.25;;;4.80;99.90;;;;;;2068745;28;20416;-73
2022/12/05 00:23:01;;;;;;;36.88;26.77;;;4.80;99.90;;;;;;2076617;28;20037;-73
2022/12/05 00:24:03;;;;;;;35.65;27.48;;;4.80;99.90;;;;;;2073997;28;20090;-73
2022/12/05 00:25:05;;;;;;;35.17;27.80;;;4.80;99.90;;;;;;2078082;28;20030;-73
2022/12/05 00:26:06;;;;;;;36.13;26.35;;;4.80;99.90;;;;;;2077791;28;20049;-73
2022/12/05 00:27:07;;;;;;;35.08;27.65;;;4.80;99.90;;;;;;2076831;28;20049;-73
2022/12/05 00:28:07;;;;;;;40.42;28.80;;;4.80;99.90;;;;;;2075417;28;20187;-73
2022/12/05 00:29:08;;;;;;;36.58;27.77;;;4.80;99.90;;;;;;2084464;28;20025;-73
2022/12/05 00:30:09;;;;;;;36.50;27.70;;;4.80;99.90;;;;;;2083767;28;20029;-73
2022/12/05 00:31:15;;;;;;;34.88;26.98;;;4.80;99.90;;;;;;2076341;28;20024;-73
2022/12/05 00:32:15;;;;;;;39.60;27.83;;;4.80;99.90;;;;;;2074049;28;20060;-73
2022/12/05 00:33:16;;;;;;;37.80;28.02;;;4.80;99.90;;;;;;2073247;28;20037;-73
2022/12/05 00:34:16;;;;;;;36.30;27.63;;;4.80;99.90;;;;;;2076493;28;20050;-73
2022/12/05 00:35:17;;;;;;;36.42;27.98;;;4.80;99.90;;;;;;2076367;28;20147;-73
2022/12/05 00:36:23;;;;;;;36.50;29.45;;;4.80;99.90;;;;;;2078750;28;20037;-73
2022/12/05 00:37:24;;;;;;;38.28;26.90;;;4.80;99.90;;;;;;2075236;28;20026;-73
2022/12/05 00:38:24;;;;;;;39.35;29.50;;;4.80;99.90;;;;;;2075306;28;20028;-73
2022/12/05 00:39:25;;;;;;;40.45;28.48;;;4.80;99.90;;;;;;2084764;28;20084;-73
2022/12/05 00:40:25;;;;;;;38.40;27.95;;;4.80;99.90;;;;;;2084061;28;20033;-73
2022/12/05 00:41:27;;;;;;;37.92;27.85;;;4.80;99.90;;;;;;2076930;28;20041;-73
2022/12/05 00:42:28;;;;;;;41.95;28.30;;;4.80;99.90;;;;;;2076559;28;20036;-73
2022/12/05 00:43:29;;;;;;;38.95;28.75;;;4.80;99.90;;;;;;2077755;28;20056;-73
2022/12/05 00:44:29;;;;;;;38.63;27.67;;;4.80;99.90;;;;;;2076473;28;20469;-73
2022/12/05 00:45:30;;;;;;;35.42;26.77;;;4.80;99.90;;;;;;2077466;28;20036;-72
2022/12/05 00:46:32;;;;;;;38.80;28.35;;;4.80;99.90;;;;;;2077417;28;20112;-73
2022/12/05 00:47:36;;;;;;;36.42;28.35;;;4.80;99.90;;;;;;2074873;28;20457;-73
2022/12/05 00:48:36;;;;;;;38.95;29.13;;;4.80;99.90;;;;;;2075129;28;20038;-73
2022/12/05 00:49:37;;;;;;;38.72;27.95;;;4.80;99.90;;;;;;2077440;28;20105;-73
2022/12/05 00:50:37;;;;;;;38.10;28.10;;;4.90;99.90;;;;;;2076675;28;20104;-73
2022/12/05 00:51:40;;;;;;;40.13;29.77;;;4.90;99.90;;;;;;2084751;28;20017;-73
2022/12/05 00:52:41;;;;;;;39.22;28.25;;;4.90;99.90;;;;;;2076358;28;20032;-72
2022/12/05 00:53:43;;;;;;;39.38;28.25;;;4.90;99.90;;;;;;2076590;28;20033;-72
2022/12/05 00:54:43;;;;;;;36.30;28.77;;;4.90;99.90;;;;;;2077244;28;20038;-72
2022/12/05 00:55:44;;;;;;;40.58;28.60;;;4.90;99.90;;;;;;2075696;28;20764;-72
2022/12/05 00:56:45;;;;;;;42.85;30.30;;;5.00;99.90;;;;;;2083082;28;20024;-72
2022/12/05 00:57:45;;;;;;;35.72;28.08;;;4.90;99.90;;;;;;2084922;28;20036;-72
2022/12/05 00:58:46;;;;;;;38.17;29.13;;;5.00;99.90;;;;;;2085205;28;20032;-72
2022/12/05 00:59:47;;;;;;;37.45;29.33;;;4.90;99.90;;;;;;2084869;28;20090;-72
2022/12/05 01:00:47;;;;;;;40.95;29.27;;;4.90;99.90;;;;;;2078357;28;20037;-72
2022/12/05 01:01:50;;;;;;;38.55;28.75;;;5.00;99.90;;;;;;2076435;28;20657;-73
2022/12/05 01:02:50;;;;;;;36.33;27.48;;;5.00;99.90;;;;;;2077098;28;20029;-72
2022/12/05 01:03:54;;;;;;;33.70;27.17;;;5.00;99.90;;;;;;2076973;28;20021;-72
2022/12/05 01:04:55;;;;;;;41.35;29.13;;;5.00;99.90;;;;;;2075872;28;20032;-72
2022/12/05 01:05:58;;;;;;;39.90;28.73;;;5.00;99.90;;;;;;2076301;28;20037;-72
2022/12/05 01:06:58;;;;;;;40.15;28.50;;;4.90;99.90;;;;;;2075180;28;20124;-72
2022/12/05 01:07:59;;;;;;;41.85;28.00;;;4.90;99.90;;;;;;2085288;28;20028;-72
2022/12/05 01:09:00;;;;;;;38.10;27.05;;;4.90;99.90;;;;;;2085748;28;20035;-72
2022/12/05 01:10:00;;;;;;;38.75;28.48;;;5.00;99.90;;;;;;2078185;28;20469;-72
2022/12/05 01:11:03;;;;;;;35.28;27.95;;;5.00;99.90;;;;;;2077367;28;20149;-72
2022/12/05 01:12:04;;;;;;;41.28;29.20;;;5.00;99.90;;;;;;2078536;28;20096;-73
2022/12/05 01:13:04;;;;;;;41.05;27.25;;;5.00;99.90;;;;;;2082722;28;20131;-72
2022/12/05 01:14:06;;;;;;;41.00;29.10;;;5.00;99.90;;;;;;2084125;28;20102;-72
2022/12/05 01:15:07;;;;;;;41.53;28.55;;;5.00;99.90;;;;;;2077971;28;20075;-72
2022/12/05 01:16:26;;;;;;;37.90;29.00;;;5.00;99.90;;;;;;2076025;28;20655;-72
2022/12/05 01:17:26;;;;;;;40.42;28.85;;;5.10;99.90;;;;;;2077530;28;20116;-72
2022/12/05 01:18:27;;;;;;;36.33;27.77;;;5.00;99.90;;;;;;2078436;28;20582;-72
2022/12/05 01:19:30;;;;;;;40.53;29.70;;;5.10;99.90;;;;;;2077506;28;20033;-72
2022/12/05 01:20:31;;;;;;;42.28;28.38;;;5.10;99.90;;;;;;2076505;28;20060;-72
2022/12/05 01:21:31;;;;;;;38.85;27.95;;;5.00;99.90;;;;;;2075790;28;20026;-72
2022/12/05 01:22:32;;;;;;;40.88;28.65;;;5.10;99.90;;;;;;2084799;28;20021;-72
2022/12/05 01:23:32;;;;;;;34.95;27.85;;;5.00;99.90;;;;;;2085043;28;20017;-72
2022/12/05 01:24:33;;;;;;;36.63;27.25;;;5.10;99.90;;;;;;2077120;28;20064;-72
2022/12/05 01:25:34;;;;;;;38.47;29.25;;;5.10;99.90;;;;;;2085050;28;20100;-72
2022/12/05 01:26:34;;;;;;;37.58;28.77;;;5.10;99.90;;;;;;2084944;28;20029;-72
2022/12/05 01:27:35;;;;;;;38.53;27.42;;;5.10;99.90;;;;;;2076666;28;20141;-72
2022/12/05 01:28:36;;;;;;;41.08;29.00;;;5.00;99.90;;;;;;2076003;28;20579;-72
2022/12/05 01:29:36;;;;;;;39.83;28.08;;;5.00;99.90;;;;;;2075894;28;20553;-72
2022/12/05 01:30:42;;;;;;;39.28;27.95;;;5.00;99.90;;;;;;2074361;28;20351;-72
2022/12/05 01:31:42;;;;;;;38.00;27.35;;;5.00;99.90;;;;;;2076566;28;20034;-72
2022/12/05 01:32:43;;;;;;;40.58;28.90;;;5.00;99.90;;;;;;2076359;28;20028;-72
2022/12/05 01:33:44;;;;;;;38.00;28.13;;;5.00;99.90;;;;;;2085382;28;20107;-73
2022/12/05 01:34:44;;;;;;;37.67;28.50;;;5.00;99.90;;;;;;2084828;28;20036;-73
2022/12/05 01:35:45;;;;;;;41.10;28.25;;;5.00;99.90;;;;;;2074295;28;20036;-72
2022/12/05 01:36:46;;;;;;;38.35;29.30;;;5.00;99.90;;;;;;2077674;28;20021;-72
2022/12/05 01:37:46;;;;;;;40.20;28.92;;;5.00;99.90;;;;;;2074943;28;20049;-73
2022/12/05 01:38:47;;;;;;;38.67;29.10;;;5.00;99.90;;;;;;2073154;28;20024;-73
2022/12/05 01:39:48;;;;;;;42.47;29.52;;;5.00;99.90;;;;;;2077144;28;20018;-72
2022/12/05 01:40:49;;;;;;;39.65;28.35;;;5.00;99.90;;;;;;2075070;28;20052;-72
2022/12/05 01:41:50;;;;;;;41.95;29.10;;;5.00;99.90;;;;;;2077123;28;20018;-72
2022/12/05 01:42:50;;;;;;;41.10;28.23;;;5.10;99.90;;;;;;2076115;28;20034;-72
2022/12/05 01:43:58;;;;;;;39.72;28.63;;;5.00;99.90;;;;;;2076529;28;20032;-72
2022/12/05 01:45:07;;;;;;;38.95;28.70;;;5.10;99.90;;;;;;2076827;28;20029;-72
2022/12/05 01:46:07;;;;;;;41.13;29.38;;;5.00;99.90;;;;;;2076937;28;20034;-72
2022/12/05 01:47:08;;;;;;;40.88;29.33;;;5.00;99.90;;;;;;2075142;28;20060;-72
2022/12/05 01:48:16;;;;;;;39.28;28.33;;;5.00;99.90;;;;;;2076478;28;20472;-72
2022/12/05 01:49:22;;;;;;;40.90;29.58;;;5.00;99.90;;;;;;2078371;28;20025;-72
2022/12/05 01:50:23;;;;;;;39.78;29.45;;;5.00;99.90;;;;;;2074537;28;20104;-72
2022/12/05 01:51:24;;;;;;;38.00;27.40;;;5.00;99.90;;;;;;2075240;28;20033;-73
2022/12/05 01:52:27;;;;;;;38.97;28.52;;;5.00;99.90;;;;;;2076451;28;20627;-72
2022/12/05 01:53:29;;;;;;;40.90;28.48;;;5.00;99.90;;;;;;2074284;28;20072;-72
2022/12/05 01:54:29;;;;;;;40.95;30.00;;;5.00;99.90;;;;;;2075581;28;20029;-72
2022/12/05 01:55:32;;;;;;;40.35;28.35;;;5.00;99.90;;;;;;2076908;28;20112;-72
2022/12/05 01:56:34;;;;;;;37.00;28.90;;;5.00;99.90;;;;;;2083736;28;20101;-72
2022/12/05 01:57:35;;;;;;;40.65;29.08;;;5.00;99.90;;;;;;2084049;28;20014;-73
2022/12/05 01:58:37;;;;;;;41.67;27.70;;;5.10;99.90;;;;;;2076900;28;20014;-72
2022/12/05 01:59:44;;;;;;;40.78;29.48;;;5.00;99.90;;;;;;2074998;28;20068;-73
2022/12/05 02:00:45;;;;;;;41.38;29.13;;;5.10;99.90;;;;;;2083006;28;20513;-71
2022/12/05 02:01:45;;;;;;;41.17;29.05;;;5.00;99.90;;;;;;2076748;28;20040;-71
2022/12/05 02:02:56;;;;;;;41.65;29.38;;;5.00;99.90;;;;;;2077159;28;20491;-71
2022/12/05 02:03:57;;;;;;;41.30;28.08;;;5.00;99.90;;;;;;2075502;28;20485;-71
2022/12/05 02:05:07;;;;;;;39.42;28.90;;;5.00;99.90;;;;;;2074603;28;20029;-71
2022/12/05 02:06:08;;;;;;;42.65;29.98;;;5.00;99.90;;;;;;2077699;28;20053;-71
2022/12/05 02:07:09;;;;;;;40.83;30.13;;;5.00;99.90;;;;;;2078417;28;20621;-71
2022/12/05 02:08:10;;;;;;;42.42;30.63;;;5.00;99.90;;;;;;2077238;28;20119;-71
2022/12/05 02:09:11;;;;;;;41.25;31.65;;;5.00;99.90;;;;;;2076567;28;20040;-70
2022/12/05 02:10:12;;;;;;;42.63;32.28;;;5.00;99.90;;;;;;2075828;28;20034;-70
2022/12/05 02:11:13;;;;;;;47.15;33.78;;;5.10;99.90;;;;;;2076245;28;20034;-71
2022/12/05 02:12:13;;;;;;;45.78;33.58;;;5.10;99.90;;;;;;2077246;28;20803;-71
2022/12/05 02:13:33;;;;;;;49.22;36.40;;;5.10;99.90;;;;;;2076558;28;20560;-71
2022/12/05 02:14:44;;;;;;;50.75;36.38;;;5.10;99.90;;;;;;2074160;28;20469;-71
2022/12/05 02:15:55;;;;;;;52.72;37.63;;;5.00;99.90;;;;;;2075864;28;20033;-71
2022/12/05 02:17:29;;;;;;;48.28;38.25;;;5.00;99.90;;;;;;2077143;28;20105;-71
2022/12/05 02:18:45;;;;;;;48.00;36.33;;;5.00;99.90;;;;;;2076560;28;20021;-71
2022/12/05 02:20:24;;;;;;;48.80;37.15;;;5.00;99.90;;;;;;2075155;28;20036;-71
2022/12/05 02:21:33;;;;;;;48.47;38.28;;;4.90;99.90;;;;;;2066438;28;20132;-70
2022/12/05 02:22:52;;;;;;;51.88;38.78;;;5.00;99.90;;;;;;2068325;28;20018;-71
2022/12/05 02:24:17;;;;;;;52.53;40.67;;;5.00;99.90;;;;;;2067350;28;20387;-71
2022/12/05 02:25:45;;;;;;;51.58;39.60;;;4.90;99.90;;;;;;2068551;28;20100;-71
2022/12/05 02:27:06;;;;;;;56.65;41.10;;;5.00;99.90;;;;;;2069582;28;20018;-71
2022/12/05 02:28:40;;;;;;;58.05;42.47;;;5.00;99.90;;;;;;2075570;28;20557;-71
2022/12/05 02:30:14;;;;;;;56.30;40.65;;;5.00;99.90;;;;;;2084370;28;20488;-71
2022/12/05 02:31:33;;;;;;;55.85;40.50;;;5.00;99.90;;;;;;2080425;28;20083;-73
2022/12/05 02:33:05;;;;;;;53.40;38.08;;;5.00;99.90;;;;;;2076379;28;20032;-71
2022/12/05 02:34:18;;;;;;;55.85;38.58;;;5.00;99.90;;;;;;2074636;28;20056;-73
2022/12/05 02:35:30;;;;;;;56.35;40.72;;;5.00;99.90;;;;;;2075327;28;20373;-73
2022/12/05 02:36:39;;;;;;;55.53;39.72;;;5.00;99.90;;;;;;2076001;28;20609;-73
2022/12/05 02:37:55;;;;;;;47.58;35.60;;;5.00;99.90;;;;;;2075820;28;20424;-73
2022/12/05 02:38:58;;;;;;;54.22;38.50;;;4.90;99.90;;;;;;2073587;28;20030;-73
2022/12/05 02:40:19;;;;;;;58.15;38.28;;;5.00;99.90;;;;;;2075622;28;20031;-73
2022/12/05 02:41:38;;;;;;;52.92;36.50;;;5.00;99.90;;;;;;2077760;28;20487;-73
2022/12/05 02:42:43;;;;;;;49.45;35.03;;;5.00;99.90;;;;;;2074544;28;20025;-73
2022/12/05 02:44:10;;;;;;;48.55;35.20;;;4.90;99.90;;;;;;2076963;28;20049;-73
2022/12/05 02:45:14;;;;;;;48.45;34.45;;;5.00;99.90;;;;;;2069855;28;20045;-72
2022/12/05 02:46:20;;;;;;;48.08;33.95;;;4.90;99.90;;;;;;2074475;28;20091;-73
2022/12/05 02:47:25;;;;;;;48.67;34.38;;;4.90;99.90;;;;;;2076574;28;20029;-73
2022/12/05 02:48:28;;;;;;;44.03;32.28;;;4.90;99.90;;;;;;2074359;28;20117;-73
2022/12/05 02:49:33;;;;;;;47.28;32.58;;;4.90;99.90;;;;;;2076885;28;20061;-73
2022/12/05 02:50:37;;;;;;;45.47;33.25;;;4.90;99.90;;;;;;2076092;28;20600;-73
2022/12/05 02:51:44;;;;;;;47.55;32.95;;;4.90;99.90;;;;;;2077244;28;20434;-73
2022/12/05 02:52:47;;;;;;;46.03;32.30;;;4.90;99.90;;;;;;2083362;28;20026;-73
2022/12/05 02:53:50;;;;;;;40.53;30.80;;;4.90;99.90;;;;;;2077522;28;20096;-73
2022/12/05 02:54:53;;;;;;;45.38;31.30;;;4.90;99.90;;;;;;2075460;28;20064;-73
2022/12/05 02:55:55;;;;;;;46.35;32.20;;;5.00;99.90;;;;;;2076724;28;20117;-73
2022/12/05 02:56:57;;;;;;;44.45;31.85;;;5.00;99.90;;;;;;2077093;28;20082;-73
2022/12/05 02:58:03;;;;;;;45.75;32.17;;;5.00;99.90;;;;;;2076356;28;20038;-73
2022/12/05 02:59:03;;;;;;;44.78;32.20;;;5.00;99.90;;;;;;2076449;28;20033;-73
2022/12/05 03:00:05;;;;;;;44.10;31.42;;;4.90;99.90;;;;;;2076047;28;20029;-73
2022/12/05 03:01:06;;;;;;;45.15;32.83;;;5.00;99.90;;;;;;2074104;28;20373;-72
2022/12/05 03:02:08;;;;;;;45.83;33.88;;;5.00;99.90;;;;;;2076813;28;20022;-73
2022/12/05 03:03:17;;;;;;;45.72;32.10;;;4.90;99.90;;;;;;2073988;28;20021;-72
2022/12/05 03:04:21;;;;;;;47.42;34.65;;;5.00;99.90;;;;;;2077267;28;20017;-72
2022/12/05 03:05:38;;;;;;;42.78;32.88;;;4.90;99.90;;;;;;2076269;28;20509;-72
2022/12/05 03:06:47;;;;;;;43.42;32.33;;;4.90;99.90;;;;;;2072055;28;20041;-72
2022/12/05 03:07:50;;;;;;;44.88;32.10;;;4.90;99.90;;;;;;2075407;28;20848;-72
2022/12/05 03:09:01;;;;;;;46.50;34.05;;;4.90;99.90;;;;;;2075986;28;20010;-72
2022/12/05 03:10:06;;;;;;;45.75;33.08;;;4.90;99.90;;;;;;2077182;28;20025;-73
2022/12/05 03:11:07;;;;;;;46.03;34.97;;;4.90;99.90;;;;;;2076241;28;20028;-72
2022/12/05 03:12:19;;;;;;;43.15;32.80;;;5.00;99.90;;;;;;2076437;28;20072;-72
2022/12/05 03:13:26;;;;;;;41.20;31.98;;;4.90;99.90;;;;;;2075769;28;20469;-72
2022/12/05 03:14:35;;;;;;;49.42;34.38;;;4.90;99.90;;;;;;2076847;28;20897;-72
2022/12/05 03:15:40;;;;;;;48.22;33.15;;;4.90;99.90;;;;;;2077444;28;20087;-72
2022/12/05 03:16:47;;;;;;;50.40;34.55;;;4.90;99.90;;;;;;2076408;28;20022;-72
2022/12/05 03:17:56;;;;;;;48.20;33.38;;;4.90;99.90;;;;;;2074320;28;20482;-72
2022/12/05 03:19:14;;;;;;;50.35;33.75;;;4.90;99.90;;;;;;2077128;28;20021;-73
2022/12/05 03:20:23;;;;;;;48.35;33.60;;;4.90;99.90;;;;;;2075211;28;20668;-73
2022/12/05 03:21:38;;;;;;;47.03;33.42;;;4.90;99.90;;;;;;2076299;28;20026;-73
2022/12/05 03:22:49;;;;;;;43.75;32.15;;;4.90;99.90;;;;;;2076839;28;20028;-72
2022/12/05 03:23:55;;;;;;;47.05;34.45;;;4.90;99.90;;;;;;2076091;28;20104;-72
2022/12/05 03:24:56;;;;;;;49.85;34.65;;;4.90;99.90;;;;;;2075650;28;20022;-72
2022/12/05 03:26:17;;;;;;;48.85;33.72;;;4.90;99.90;;;;;;2077919;28;20042;-73
2022/12/05 03:27:27;;;;;;;46.33;33.20;;;4.90;99.90;;;;;;2076741;28;20022;-72
2022/12/05 03:28:38;;;;;;;46.60;33.05;;;4.90;99.90;;;;;;2084333;28;20103;-72
2022/12/05 03:29:51;;;;;;;45.00;32.70;;;5.00;99.90;;;;;;2083944;28;20033;-73
2022/12/05 03:30:54;;;;;;;48.30;33.92;;;5.00;99.90;;;;;;2076457;28;20091;-72
2022/12/05 03:32:13;;;;;;;47.38;32.90;;;5.00;99.90;;;;;;2078794;28;20029;-73
2022/12/05 03:33:22;;;;;;;43.53;32.92;;;5.00;99.90;;;;;;2077642;28;20048;-72
2022/12/05 03:34:54;;;;;;;45.72;33.92;;;5.00;99.90;;;;;;2075351;28;20041;-73
2022/12/05 03:36:12;;;;;;;44.58;33.55;;;5.00;99.90;;;;;;2078705;28;20064;-73
2022/12/05 03:37:30;;;;;;;48.60;33.95;;;5.00;99.90;;;;;;2076493;28;20030;-73
2022/12/05 03:38:38;;;;;;;47.25;34.67;;;5.00;99.90;;;;;;2078500;28;20058;-72
2022/12/05 03:39:44;;;;;;;48.28;34.85;;;5.00;99.90;;;;;;2076812;28;20029;-73
2022/12/05 03:40:47;;;;;;;46.85;34.47;;;5.00;99.90;;;;;;2077858;28;20029;-73
2022/12/05 03:41:55;;;;;;;43.97;32.78;;;5.00;99.90;;;;;;2076867;28;20009;-72
2022/12/05 03:43:15;;;;;;;46.97;32.85;;;5.00;99.90;;;;;;2077386;28;20374;-73
2022/12/05 03:44:18;;;;;;;47.25;34.30;;;4.90;99.90;;;;;;2079137;28;20025;-72
2022/12/05 03:45:26;;;;;;;46.63;32.75;;;4.90;99.90;;;;;;2077380;28;20018;-73
2022/12/05 03:46:32;;;;;;;45.33;33.80;;;5.00;99.90;;;;;;2077522;28;20482;-72
2022/12/05 03:47:38;;;;;;;45.80;33.22;;;5.00;99.90;;;;;;2076051;28;20037;-72
2022/12/05 03:48:54;;;;;;;43.60;33.35;;;5.00;99.90;;;;;;2076617;28;20486;-72
2022/12/05 03:50:02;;;;;;;47.55;33.97;;;5.00;99.90;;;;;;2076890;28;20403;-73
2022/12/05 03:51:06;;;;;;;50.13;34.83;;;5.00;99.90;;;;;;2077272;28;20586;-72
2022/12/05 03:52:18;;;;;;;48.83;34.85;;;5.00;99.90;;;;;;2075821;28;20124;-73
2022/12/05 03:53:24;;;;;;;50.08;36.33;;;5.00;99.90;;;;;;2077493;28;20536;-72
2022/12/05 03:54:36;;;;;;;49.42;34.22;;;5.00;99.90;;;;;;2078452;28;20087;-73
2022/12/05 03:55:40;;;;;;;45.08;31.77;;;5.00;99.90;;;;;;2078319;28;20745;-73
2022/12/05 03:56:46;;;;;;;44.85;33.65;;;5.00;99.90;;;;;;2076964;28;20022;-73
2022/12/05 03:57:56;;;;;;;47.53;33.75;;;5.00;99.90;;;;;;2076774;28;20041;-72
2022/12/05 03:59:06;;;;;;;40.30;30.55;;;4.90;99.90;;;;;;2077226;28;20393;-72
2022/12/05 04:00:11;;;;;;;46.17;31.90;;;5.00;99.90;;;;;;2077419;28;20401;-73
2022/12/05 04:01:15;;;;;;;42.58;30.95;;;4.90;99.90;;;;;;2077072;28;20086;-72
2022/12/05 04:02:54;;;;;;;44.30;32.08;;;4.90;99.90;;;;;;2077757;28;20056;-72
2022/12/05 04:03:59;;;;;;;42.97;31.88;;;4.90;99.90;;;;;;2077560;28;20080;-72
2022/12/05 04:05:17;;;;;;;42.40;31.10;;;4.90;99.90;;;;;;2077748;28;20033;-73
2022/12/05 04:06:32;;;;;;;45.60;30.52;;;4.90;99.90;;;;;;2078103;28;20029;-72
2022/12/05 04:07:35;;;;;;;42.45;28.92;;;4.90;99.90;;;;;;2078519;28;20029;-72
2022/12/05 04:08:47;;;;;;;41.03;29.25;;;4.90;99.90;;;;;;2078432;28;20018;-72
2022/12/05 04:10:02;;;;;;;42.13;28.65;;;5.00;99.90;;;;;;2078540;28;20022;-72
2022/12/05 04:11:08;;;;;;;41.88;29.73;;;4.90;99.90;;;;;;2077525;28;20057;-72
2022/12/05 04:12:16;;;;;;;43.38;30.80;;;5.00;99.90;;;;;;2077903;28;20397;-72
2022/12/05 04:13:21;;;;;;;40.97;29.88;;;5.00;99.90;;;;;;2076844;28;20036;-72
2022/12/05 04:14:34;;;;;;;40.70;29.02;;;5.00;99.90;;;;;;2076759;28;20121;-71
2022/12/05 04:17:02;;;;;;;43.90;29.73;;;5.00;99.90;;;;;;2076651;28;20029;-72
2022/12/05 04:17:17;;;;;;;39.83;28.02;;;5.00;99.90;;;;;;2078690;28;20450;-72
2022/12/05 04:18:21;;;;;;;38.00;28.05;;;5.00;99.90;;;;;;2077046;28;20029;-72
2022/12/05 04:22:26;;;;;;;38.40;28.05;;;5.00;99.90;;;;;;2076650;28;20025;-72
2022/12/05 04:23:27;;;;;;;44.35;27.85;;;5.00;99.90;;;;;;2077185;28;20103;-72
2022/12/05 04:26:15;;;;;;;38.03;27.23;;;5.00;99.90;;;;;;2078451;28;20780;-72
2022/12/05 04:27:38;;;;;;;41.40;29.30;;;5.00;99.90;;;;;;2076638;28;20838;-72
2022/12/05 04:28:50;;;;;;;44.47;29.15;;;5.00;99.90;;;;;;2078379;28;20112;-72
2022/12/05 04:30:05;;;;;;;37.13;26.98;;;5.00;99.90;;;;;;2085392;28;20024;-72
2022/12/05 04:31:13;;;;;;;38.17;28.10;;;5.10;99.90;;;;;;2081330;28;20029;-72
2022/12/05 04:32:13;;;;;;;41.13;28.50;;;5.10;99.90;;;;;;2078041;28;20105;-72
2022/12/05 04:33:28;;;;;;;41.58;28.73;;;5.10;99.90;;;;;;2078778;28;20396;-71
2022/12/05 04:34:31;;;;;;;36.20;26.60;;;5.10;99.90;;;;;;2075219;28;20029;-72
2022/12/05 04:35:38;;;;;;;37.38;26.85;;;5.10;99.90;;;;;;2077888;28;20029;-71
2022/12/05 04:36:43;;;;;;;40.60;28.42;;;5.10;99.90;;;;;;2076096;28;20018;-72
2022/12/05 04:37:49;;;;;;;35.97;26.98;;;5.10;99.90;;;;;;2075998;28;20093;-71
2022/12/05 04:39:02;;;;;;;35.90;26.00;;;5.10;99.90;;;;;;2075586;28;20026;-71
2022/12/05 04:40:16;;;;;;;38.92;26.95;;;5.10;99.90;;;;;;2076444;28;20026;-71
2022/12/05 04:41:23;;;;;;;36.70;26.58;;;5.10;99.90;;;;;;2075845;28;20026;-71
2022/12/05 04:42:27;;;;;;;34.53;25.67;;;5.10;99.90;;;;;;2077133;28;20120;-72
2022/12/05 04:43:32;;;;;;;35.85;26.25;;;5.10;99.90;;;;;;2077680;28;20018;-72
2022/12/05 04:44:41;;;;;;;35.25;26.95;;;5.10;99.90;;;;;;2075702;28;20049;-72
2022/12/05 04:45:42;;;;;;;37.42;26.15;;;5.10;99.90;;;;;;2076974;28;20025;-72
2022/12/05 04:46:44;;;;;;;38.53;27.88;;;5.00;99.90;;;;;;2077925;28;20041;-71
2022/12/05 04:47:53;;;;;;;35.97;26.63;;;5.00;99.90;;;;;;2077499;28;20059;-72
2022/12/05 04:49:00;;;;;;;36.65;26.27;;;5.00;99.90;;;;;;2076899;28;20401;-72
2022/12/05 04:50:03;;;;;;;40.00;25.30;;;5.00;99.90;;;;;;2077254;28;20021;-72
2022/12/05 04:51:08;;;;;;;37.05;26.98;;;5.00;99.90;;;;;;2075446;28;20033;-72
2022/12/05 04:52:11;;;;;;;32.90;25.17;;;5.00;99.90;;;;;;2077029;28;20563;-72
2022/12/05 04:53:14;;;;;;;36.58;26.33;;;5.10;99.90;;;;;;2077094;28;20128;-72
2022/12/05 04:54:34;;;;;;;36.28;26.70;;;5.10;99.90;;;;;;2076926;28;20082;-72
2022/12/05 04:55:38;;;;;;;33.77;25.73;;;5.10;99.90;;;;;;2078322;28;20079;-72
2022/12/05 04:56:41;;;;;;;37.40;26.92;;;5.10;99.90;;;;;;2077453;28;20028;-71
2022/12/05 04:58:05;;;;;;;36.05;26.23;;;5.10;99.90;;;;;;2076536;28;20022;-71
2022/12/05 04:59:05;;;;;;;37.85;26.55;;;5.10;99.90;;;;;;2086273;28;20025;-72
2022/12/05 05:00:07;;;;;;;36.97;26.33;;;5.10;99.90;;;;;;2085428;28;20557;-71
2022/12/05 05:01:30;;;;;;;35.28;26.45;;;5.10;99.90;;;;;;2076053;28;20608;-71
2022/12/05 05:02:41;;;;;;;34.55;25.50;;;5.10;99.90;;;;;;2076064;28;20030;-72
2022/12/05 05:03:47;;;;;;;34.65;25.38;;;5.10;99.90;;;;;;2075624;28;20022;-71
2022/12/05 05:04:51;;;;;;;34.17;26.35;;;5.10;99.90;;;;;;2077097;28;20021;-71
2022/12/05 05:05:54;;;;;;;33.42;24.23;;;5.10;99.90;;;;;;2077189;28;20044;-71
2022/12/05 05:06:55;;;;;;;33.40;25.23;;;5.10;99.90;;;;;;2085797;28;20021;-71
2022/12/05 05:07:55;;;;;;;36.88;25.50;;;5.20;99.90;;;;;;2085938;28;20061;-72
2022/12/05 05:08:57;;;;;;;34.38;25.45;;;5.20;99.90;;;;;;2077998;28;20052;-72
2022/12/05 05:09:57;;;;;;;33.13;24.73;;;5.20;99.90;;;;;;2078111;28;20413;-72
2022/12/05 05:11:19;;;;;;;31.65;24.52;;;5.20;99.90;;;;;;2077575;28;20052;-72
2022/12/05 05:12:20;;;;;;;35.67;26.23;;;5.20;99.90;;;;;;2076833;28;20029;-71
2022/12/05 05:13:20;;;;;;;34.60;24.52;;;5.20;99.90;;;;;;2075981;28;20137;-71
2022/12/05 05:14:21;;;;;;;32.28;25.25;;;5.20;99.90;;;;;;2078013;28;20037;-72
2022/12/05 05:15:22;;;;;;;34.28;25.00;;;5.20;99.90;;;;;;2076444;28;20037;-71
2022/12/05 05:16:24;;;;;;;36.70;26.30;;;5.20;99.90;;;;;;2077811;28;20076;-72
2022/12/05 05:17:24;;;;;;;36.22;26.70;;;5.20;99.90;;;;;;2078278;28;20044;-72
2022/12/05 05:18:24;;;;;;;33.38;24.50;;;5.20;99.90;;;;;;2075712;28;20032;-71
2022/12/05 05:19:25;;;;;;;35.45;26.23;;;5.20;99.90;;;;;;2077391;28;20021;-72
2022/12/05 05:20:26;;;;;;;33.72;24.60;;;5.20;99.90;;;;;;2076446;28;20030;-72
2022/12/05 05:21:29;;;;;;;33.13;24.83;;;5.20;99.90;;;;;;2076956;28;20029;-72
2022/12/05 05:22:30;;;;;;;33.33;25.00;;;5.20;99.90;;;;;;2077162;28;21071;-72
2022/12/05 05:23:31;;;;;;;33.67;24.40;;;5.20;99.90;;;;;;2076973;28;20168;-71
2022/12/05 05:24:31;;;;;;;33.70;25.55;;;5.20;99.90;;;;;;2076626;28;20432;-72
2022/12/05 05:25:32;;;;;;;33.45;25.58;;;5.20;99.90;;;;;;2076205;28;20516;-71
2022/12/05 05:26:35;;;;;;;31.17;24.02;;;5.20;99.90;;;;;;2077097;28;20033;-71
2022/12/05 05:27:35;;;;;;;32.78;23.48;;;5.20;99.90;;;;;;2078639;28;20544;-72
2022/12/05 05:28:36;;;;;;;34.35;24.52;;;5.20;99.90;;;;;;2077715;28;20420;-71
2022/12/05 05:29:36;;;;;;;34.83;24.08;;;5.20;99.90;;;;;;2076056;28;20081;-72
2022/12/05 05:30:37;;;;;;;33.35;24.13;;;5.20;99.90;;;;;;2076020;28;20041;-72
2022/12/05 05:31:38;;;;;;;33.45;24.85;;;5.20;99.90;;;;;;2077593;28;20053;-71
2022/12/05 05:32:39;;;;;;;30.30;23.17;;;5.20;99.90;;;;;;2076415;28;20465;-72
2022/12/05 05:33:39;;;;;;;30.75;23.42;;;5.20;99.90;;;;;;2083412;28;20018;-72
2022/12/05 05:34:40;;;;;;;33.58;24.73;;;5.30;99.90;;;;;;2081577;28;20079;-72
2022/12/05 05:35:40;;;;;;;33.05;24.77;;;5.30;99.90;;;;;;2075489;28;20454;-71
2022/12/05 05:36:42;;;;;;;36.33;25.65;;;5.30;99.90;;;;;;2077288;28;20017;-72
2022/12/05 05:37:42;;;;;;;37.60;25.90;;;5.30;99.90;;;;;;2077412;28;20141;-72
2022/12/05 05:38:46;;;;;;;36.53;25.50;;;5.30;99.90;;;;;;2076878;28;20088;-71
2022/12/05 05:39:46;;;;;;;39.47;25.17;;;5.30;99.90;;;;;;2076319;28;20026;-71
2022/12/05 05:40:47;;;;;;;36.17;25.63;;;5.30;99.90;;;;;;2076020;28;20075;-72
2022/12/05 05:41:47;;;;;;;33.53;25.27;;;5.30;99.90;;;;;;2084673;28;20024;-72